Weather at Faro Airport

Public forecast

Using degrees Celsius for public forecast. Weather courtesy of forecast.io.

Current aviation weather report (METAR) for Faro Airport

2024/05/28 14:30 (retrieved 32 minutes ago)

LPFR 281430Z 17007KT CAVOK 22/17 Q1017

Aviation forecast (TAF) for Faro Airport

2024/05/28 12:18 (retrieved 3 hours ago)

TAF LPFR 281100Z 2812/2912 12013KT CAVOK BECMG 2813/2816 23010KT BECMG 2817/2820 VRB02KT BECMG 2910/2912 21008KT